sensor_id;sensor_type;location;lat;lon;timestamp;P1;durP1;ratioP1;P2;durP2;ratioP2
14778;SDS011;7481;53.750;10.570;2022-07-17T00:01:06;7.97;;;2.30;;
14778;SDS011;7481;53.750;10.570;2022-07-17T00:03:33;8.50;;;2.17;;
14778;SDS011;7481;53.750;10.570;2022-07-17T00:06:00;7.83;;;2.60;;
14778;SDS011;7481;53.750;10.570;2022-07-17T00:08:27;11.30;;;2.57;;
14778;SDS011;7481;53.750;10.570;2022-07-17T00:10:54;6.30;;;2.10;;
14778;SDS011;7481;53.750;10.570;2022-07-17T00:13:21;5.03;;;2.10;;
14778;SDS011;7481;53.750;10.570;2022-07-17T00:15:49;6.73;;;2.03;;
14778;SDS011;7481;53.750;10.570;2022-07-17T00:18:16;8.70;;;2.33;;
14778;SDS011;7481;53.750;10.570;2022-07-17T00:20:43;4.93;;;1.87;;
14778;SDS011;7481;53.750;10.570;2022-07-17T00:23:10;8.53;;;2.30;;
14778;SDS011;7481;53.750;10.570;2022-07-17T00:25:37;5.60;;;2.20;;
14778;SDS011;7481;53.750;10.570;2022-07-17T00:28:05;5.17;;;2.33;;
14778;SDS011;7481;53.750;10.570;2022-07-17T00:30:32;5.00;;;1.80;;
14778;SDS011;7481;53.750;10.570;2022-07-17T00:32:59;5.70;;;2.40;;
14778;SDS011;7481;53.750;10.570;2022-07-17T00:35:26;5.17;;;1.83;;
14778;SDS011;7481;53.750;10.570;2022-07-17T00:37:53;4.97;;;2.07;;
14778;SDS011;7481;53.750;10.570;2022-07-17T00:40:21;8.97;;;2.10;;
14778;SDS011;7481;53.750;10.570;2022-07-17T00:42:50;4.63;;;2.10;;
14778;SDS011;7481;53.750;10.570;2022-07-17T00:45:18;7.93;;;2.10;;
14778;SDS011;7481;53.750;10.570;2022-07-17T00:47:53;9.77;;;2.40;;
14778;SDS011;7481;53.750;10.570;2022-07-17T00:50:25;8.37;;;2.17;;
14778;SDS011;7481;53.750;10.570;2022-07-17T00:52:56;3.60;;;2.00;;
14778;SDS011;7481;53.750;10.570;2022-07-17T00:55:24;7.37;;;2.53;;
14778;SDS011;7481;53.750;10.570;2022-07-17T00:58:09;8.47;;;2.63;;
14778;SDS011;7481;53.750;10.570;2022-07-17T01:00:37;7.00;;;1.97;;
14778;SDS011;7481;53.750;10.570;2022-07-17T01:03:04;8.30;;;2.50;;
14778;SDS011;7481;53.750;10.570;2022-07-17T01:05:31;6.00;;;1.97;;
14778;SDS011;7481;53.750;10.570;2022-07-17T01:07:59;8.87;;;2.43;;
14778;SDS011;7481;53.750;10.570;2022-07-17T01:10:26;4.83;;;2.10;;
14778;SDS011;7481;53.750;10.570;2022-07-17T01:12:53;7.73;;;2.40;;
14778;SDS011;7481;53.750;10.570;2022-07-17T01:15:21;4.43;;;2.17;;
14778;SDS011;7481;53.750;10.570;2022-07-17T01:17:50;7.80;;;2.60;;
14778;SDS011;7481;53.750;10.570;2022-07-17T01:20:17;5.67;;;2.37;;
14778;SDS011;7481;53.750;10.570;2022-07-17T01:22:46;4.60;;;2.13;;
14778;SDS011;7481;53.750;10.570;2022-07-17T01:25:19;9.90;;;2.73;;
14778;SDS011;7481;53.750;10.570;2022-07-17T01:27:48;8.73;;;2.60;;
14778;SDS011;7481;53.750;10.570;2022-07-17T01:30:16;6.40;;;2.90;;
14778;SDS011;7481;53.750;10.570;2022-07-17T01:32:44;6.57;;;2.17;;
14778;SDS011;7481;53.750;10.570;2022-07-17T01:35:12;5.70;;;2.00;;
14778;SDS011;7481;53.750;10.570;2022-07-17T01:37:41;2.43;;;1.90;;
14778;SDS011;7481;53.750;10.570;2022-07-17T01:40:09;8.30;;;2.43;;
14778;SDS011;7481;53.750;10.570;2022-07-17T01:42:47;4.33;;;2.40;;
14778;SDS011;7481;53.750;10.570;2022-07-17T01:45:16;6.23;;;1.80;;
14778;SDS011;7481;53.750;10.570;2022-07-17T01:47:45;5.37;;;1.87;;
14778;SDS011;7481;53.750;10.570;2022-07-17T01:50:12;9.83;;;2.83;;
14778;SDS011;7481;53.750;10.570;2022-07-17T01:52:41;8.13;;;1.93;;
14778;SDS011;7481;53.750;10.570;2022-07-17T01:55:10;7.33;;;2.40;;
14778;SDS011;7481;53.750;10.570;2022-07-17T01:57:40;8.63;;;2.40;;
14778;SDS011;7481;53.750;10.570;2022-07-17T02:00:08;7.67;;;1.83;;
14778;SDS011;7481;53.750;10.570;2022-07-17T02:02:37;9.60;;;2.10;;
14778;SDS011;7481;53.750;10.570;2022-07-17T02:05:04;5.93;;;2.30;;
14778;SDS011;7481;53.750;10.570;2022-07-17T02:07:32;7.87;;;2.17;;
14778;SDS011;7481;53.750;10.570;2022-07-17T02:10:00;6.23;;;2.27;;
14778;SDS011;7481;53.750;10.570;2022-07-17T02:12:27;5.37;;;2.37;;
14778;SDS011;7481;53.750;10.570;2022-07-17T02:14:54;4.87;;;2.10;;
14778;SDS011;7481;53.750;10.570;2022-07-17T02:17:21;5.47;;;2.13;;
14778;SDS011;7481;53.750;10.570;2022-07-17T02:19:48;5.70;;;2.17;;
14778;SDS011;7481;53.750;10.570;2022-07-17T02:22:14;4.83;;;2.10;;
14778;SDS011;7481;53.750;10.570;2022-07-17T02:24:41;4.30;;;2.00;;
14778;SDS011;7481;53.750;10.570;2022-07-17T02:27:08;8.40;;;2.50;;
14778;SDS011;7481;53.750;10.570;2022-07-17T02:29:35;8.87;;;3.37;;
14778;SDS011;7481;53.750;10.570;2022-07-17T02:32:02;7.00;;;2.67;;
14778;SDS011;7481;53.750;10.570;2022-07-17T02:34:30;4.17;;;2.20;;
14778;SDS011;7481;53.750;10.570;2022-07-17T02:36:57;13.17;;;2.70;;
14778;SDS011;7481;53.750;10.570;2022-07-17T02:39:24;7.63;;;2.83;;
14778;SDS011;7481;53.750;10.570;2022-07-17T02:41:51;6.83;;;2.80;;
14778;SDS011;7481;53.750;10.570;2022-07-17T02:44:18;6.50;;;2.27;;
14778;SDS011;7481;53.750;10.570;2022-07-17T02:46:45;9.93;;;2.50;;
14778;SDS011;7481;53.750;10.570;2022-07-17T02:49:12;5.57;;;2.37;;
14778;SDS011;7481;53.750;10.570;2022-07-17T02:51:39;5.13;;;2.30;;
14778;SDS011;7481;53.750;10.570;2022-07-17T02:54:06;5.47;;;2.70;;
14778;SDS011;7481;53.750;10.570;2022-07-17T02:56:33;6.10;;;2.40;;
14778;SDS011;7481;53.750;10.570;2022-07-17T02:59:00;11.67;;;2.63;;
14778;SDS011;7481;53.750;10.570;2022-07-17T03:01:27;6.53;;;2.33;;
14778;SDS011;7481;53.750;10.570;2022-07-17T03:03:54;5.80;;;2.40;;
14778;SDS011;7481;53.750;10.570;2022-07-17T03:06:21;6.73;;;3.20;;
14778;SDS011;7481;53.750;10.570;2022-07-17T03:08:48;6.63;;;2.33;;
14778;SDS011;7481;53.750;10.570;2022-07-17T03:11:17;5.10;;;2.50;;
14778;SDS011;7481;53.750;10.570;2022-07-17T03:13:43;6.73;;;2.73;;
14778;SDS011;7481;53.750;10.570;2022-07-17T03:16:11;9.47;;;2.67;;
14778;SDS011;7481;53.750;10.570;2022-07-17T03:18:38;8.10;;;2.80;;
14778;SDS011;7481;53.750;10.570;2022-07-17T03:21:05;6.43;;;2.77;;
14778;SDS011;7481;53.750;10.570;2022-07-17T03:23:32;8.10;;;2.70;;
14778;SDS011;7481;53.750;10.570;2022-07-17T03:25:59;6.80;;;2.50;;
14778;SDS011;7481;53.750;10.570;2022-07-17T03:28:26;8.43;;;2.50;;
14778;SDS011;7481;53.750;10.570;2022-07-17T03:30:53;4.30;;;2.30;;
14778;SDS011;7481;53.750;10.570;2022-07-17T03:33:20;11.07;;;3.27;;
14778;SDS011;7481;53.750;10.570;2022-07-17T03:35:47;8.67;;;2.40;;
14778;SDS011;7481;53.750;10.570;2022-07-17T03:38:14;8.60;;;3.33;;
14778;SDS011;7481;53.750;10.570;2022-07-17T03:40:41;7.47;;;2.77;;
14778;SDS011;7481;53.750;10.570;2022-07-17T03:43:08;7.07;;;2.27;;
14778;SDS011;7481;53.750;10.570;2022-07-17T03:45:35;5.63;;;2.80;;
14778;SDS011;7481;53.750;10.570;2022-07-17T03:48:02;8.83;;;2.43;;
14778;SDS011;7481;53.750;10.570;2022-07-17T03:50:30;5.83;;;2.40;;
14778;SDS011;7481;53.750;10.570;2022-07-17T03:52:56;6.73;;;2.70;;
14778;SDS011;7481;53.750;10.570;2022-07-17T03:55:23;10.23;;;2.70;;
14778;SDS011;7481;53.750;10.570;2022-07-17T03:57:51;8.73;;;3.20;;
14778;SDS011;7481;53.750;10.570;2022-07-17T04:00:18;5.50;;;2.33;;
14778;SDS011;7481;53.750;10.570;2022-07-17T04:02:45;5.97;;;2.40;;
14778;SDS011;7481;53.750;10.570;2022-07-17T04:05:12;7.63;;;2.40;;
14778;SDS011;7481;53.750;10.570;2022-07-17T04:07:40;5.23;;;2.57;;
14778;SDS011;7481;53.750;10.570;2022-07-17T04:10:08;4.80;;;2.30;;
14778;SDS011;7481;53.750;10.570;2022-07-17T04:12:37;5.80;;;2.03;;
14778;SDS011;7481;53.750;10.570;2022-07-17T04:15:05;7.47;;;2.20;;
14778;SDS011;7481;53.750;10.570;2022-07-17T04:17:33;7.43;;;2.70;;
14778;SDS011;7481;53.750;10.570;2022-07-17T04:20:02;3.73;;;2.00;;
14778;SDS011;7481;53.750;10.570;2022-07-17T04:22:29;6.43;;;2.20;;
14778;SDS011;7481;53.750;10.570;2022-07-17T04:24:56;5.17;;;2.23;;
14778;SDS011;7481;53.750;10.570;2022-07-17T04:27:24;5.03;;;2.33;;
14778;SDS011;7481;53.750;10.570;2022-07-17T04:29:50;6.80;;;2.30;;
14778;SDS011;7481;53.750;10.570;2022-07-17T04:32:17;4.50;;;2.40;;
14778;SDS011;7481;53.750;10.570;2022-07-17T04:34:44;6.27;;;2.17;;
14778;SDS011;7481;53.750;10.570;2022-07-17T04:37:11;5.93;;;2.53;;
14778;SDS011;7481;53.750;10.570;2022-07-17T04:39:38;6.00;;;2.20;;
14778;SDS011;7481;53.750;10.570;2022-07-17T04:42:05;7.13;;;2.30;;
14778;SDS011;7481;53.750;10.570;2022-07-17T04:44:32;6.30;;;2.77;;
14778;SDS011;7481;53.750;10.570;2022-07-17T04:46:59;6.83;;;2.53;;
14778;SDS011;7481;53.750;10.570;2022-07-17T04:49:27;4.33;;;2.73;;
14778;SDS011;7481;53.750;10.570;2022-07-17T04:51:54;6.87;;;2.47;;
14778;SDS011;7481;53.750;10.570;2022-07-17T04:54:20;5.50;;;2.17;;
14778;SDS011;7481;53.750;10.570;2022-07-17T04:56:47;8.17;;;2.47;;
14778;SDS011;7481;53.750;10.570;2022-07-17T04:59:14;3.53;;;2.50;;
14778;SDS011;7481;53.750;10.570;2022-07-17T05:01:42;4.90;;;2.50;;
14778;SDS011;7481;53.750;10.570;2022-07-17T05:04:09;6.93;;;2.40;;
14778;SDS011;7481;53.750;10.570;2022-07-17T05:06:36;5.93;;;2.70;;
14778;SDS011;7481;53.750;10.570;2022-07-17T05:09:02;5.37;;;2.40;;
14778;SDS011;7481;53.750;10.570;2022-07-17T05:11:29;6.03;;;2.20;;
14778;SDS011;7481;53.750;10.570;2022-07-17T05:13:57;5.57;;;2.57;;
14778;SDS011;7481;53.750;10.570;2022-07-17T05:16:24;4.90;;;1.93;;
14778;SDS011;7481;53.750;10.570;2022-07-17T05:18:51;6.13;;;2.77;;
14778;SDS011;7481;53.750;10.570;2022-07-17T05:21:18;5.07;;;1.93;;
14778;SDS011;7481;53.750;10.570;2022-07-17T05:23:45;4.50;;;2.20;;
14778;SDS011;7481;53.750;10.570;2022-07-17T05:26:12;6.43;;;2.50;;
14778;SDS011;7481;53.750;10.570;2022-07-17T05:28:39;7.20;;;2.13;;
14778;SDS011;7481;53.750;10.570;2022-07-17T05:31:06;4.67;;;2.17;;
14778;SDS011;7481;53.750;10.570;2022-07-17T05:33:33;5.53;;;2.47;;
14778;SDS011;7481;53.750;10.570;2022-07-17T05:36:00;5.20;;;2.10;;
14778;SDS011;7481;53.750;10.570;2022-07-17T05:38:28;7.77;;;2.67;;
14778;SDS011;7481;53.750;10.570;2022-07-17T05:40:55;5.27;;;2.07;;
14778;SDS011;7481;53.750;10.570;2022-07-17T05:43:21;4.40;;;2.30;;
14778;SDS011;7481;53.750;10.570;2022-07-17T05:45:48;5.90;;;2.00;;
14778;SDS011;7481;53.750;10.570;2022-07-17T05:48:15;5.70;;;2.47;;
14778;SDS011;7481;53.750;10.570;2022-07-17T05:50:42;6.47;;;1.90;;
14778;SDS011;7481;53.750;10.570;2022-07-17T05:53:09;6.20;;;2.33;;
14778;SDS011;7481;53.750;10.570;2022-07-17T05:55:38;2.80;;;2.00;;
14778;SDS011;7481;53.750;10.570;2022-07-17T05:58:05;6.33;;;2.10;;
14778;SDS011;7481;53.750;10.570;2022-07-17T06:00:31;6.67;;;2.13;;
14778;SDS011;7481;53.750;10.570;2022-07-17T06:02:59;5.60;;;2.30;;
14778;SDS011;7481;53.750;10.570;2022-07-17T06:05:26;5.73;;;2.30;;
14778;SDS011;7481;53.750;10.570;2022-07-17T06:07:54;5.83;;;2.30;;
14778;SDS011;7481;53.750;10.570;2022-07-17T06:10:23;5.13;;;2.07;;
14778;SDS011;7481;53.750;10.570;2022-07-17T06:12:51;3.57;;;2.10;;
14778;SDS011;7481;53.750;10.570;2022-07-17T06:15:22;3.97;;;1.97;;
14778;SDS011;7481;53.750;10.570;2022-07-17T06:17:50;8.03;;;2.53;;
14778;SDS011;7481;53.750;10.570;2022-07-17T06:20:18;3.57;;;1.80;;
14778;SDS011;7481;53.750;10.570;2022-07-17T06:22:45;6.37;;;2.17;;
14778;SDS011;7481;53.750;10.570;2022-07-17T06:25:12;5.90;;;1.73;;
14778;SDS011;7481;53.750;10.570;2022-07-17T06:27:40;5.17;;;1.60;;
14778;SDS011;7481;53.750;10.570;2022-07-17T06:30:08;6.97;;;2.23;;
14778;SDS011;7481;53.750;10.570;2022-07-17T06:32:37;4.60;;;1.97;;
14778;SDS011;7481;53.750;10.570;2022-07-17T06:35:04;4.28;;;1.90;;
14778;SDS011;7481;53.750;10.570;2022-07-17T06:37:32;3.77;;;1.97;;
14778;SDS011;7481;53.750;10.570;2022-07-17T06:40:00;7.33;;;1.70;;
14778;SDS011;7481;53.750;10.570;2022-07-17T06:42:27;3.50;;;1.93;;
14778;SDS011;7481;53.750;10.570;2022-07-17T06:44:57;4.57;;;1.60;;
14778;SDS011;7481;53.750;10.570;2022-07-17T06:47:24;4.40;;;1.80;;
14778;SDS011;7481;53.750;10.570;2022-07-17T06:49:51;5.15;;;1.58;;
14778;SDS011;7481;53.750;10.570;2022-07-17T06:52:18;6.63;;;2.10;;
14778;SDS011;7481;53.750;10.570;2022-07-17T06:54:45;3.87;;;2.10;;
14778;SDS011;7481;53.750;10.570;2022-07-17T06:57:12;7.10;;;2.03;;
14778;SDS011;7481;53.750;10.570;2022-07-17T06:59:41;4.27;;;1.60;;
14778;SDS011;7481;53.750;10.570;2022-07-17T07:02:07;3.30;;;1.80;;
14778;SDS011;7481;53.750;10.570;2022-07-17T07:04:34;5.23;;;1.70;;
14778;SDS011;7481;53.750;10.570;2022-07-17T07:07:01;3.77;;;1.80;;
14778;SDS011;7481;53.750;10.570;2022-07-17T07:09:28;4.93;;;2.20;;
14778;SDS011;7481;53.750;10.570;2022-07-17T07:11:55;7.70;;;2.28;;
14778;SDS011;7481;53.750;10.570;2022-07-17T07:14:22;4.63;;;1.90;;
14778;SDS011;7481;53.750;10.570;2022-07-17T07:16:49;4.72;;;1.75;;
14778;SDS011;7481;53.750;10.570;2022-07-17T07:19:16;2.92;;;1.92;;
14778;SDS011;7481;53.750;10.570;2022-07-17T07:21:43;5.80;;;1.88;;
14778;SDS011;7481;53.750;10.570;2022-07-17T07:24:10;9.98;;;2.75;;
14778;SDS011;7481;53.750;10.570;2022-07-17T07:26:37;4.30;;;1.95;;
14778;SDS011;7481;53.750;10.570;2022-07-17T07:29:04;4.78;;;1.70;;
14778;SDS011;7481;53.750;10.570;2022-07-17T07:31:31;7.80;;;2.10;;
14778;SDS011;7481;53.750;10.570;2022-07-17T07:33:59;6.63;;;1.98;;
14778;SDS011;7481;53.750;10.570;2022-07-17T07:36:26;7.25;;;2.45;;
14778;SDS011;7481;53.750;10.570;2022-07-17T07:38:56;4.32;;;2.17;;
14778;SDS011;7481;53.750;10.570;2022-07-17T07:41:23;5.35;;;2.00;;
14778;SDS011;7481;53.750;10.570;2022-07-17T07:43:50;7.20;;;2.30;;
14778;SDS011;7481;53.750;10.570;2022-07-17T07:46:17;6.53;;;1.88;;
14778;SDS011;7481;53.750;10.570;2022-07-17T07:48:44;3.63;;;2.13;;
14778;SDS011;7481;53.750;10.570;2022-07-17T07:51:11;5.88;;;1.70;;
14778;SDS011;7481;53.750;10.570;2022-07-17T07:53:38;4.60;;;2.10;;
14778;SDS011;7481;53.750;10.570;2022-07-17T07:56:05;5.32;;;2.05;;
14778;SDS011;7481;53.750;10.570;2022-07-17T07:58:35;6.13;;;2.03;;
14778;SDS011;7481;53.750;10.570;2022-07-17T08:01:03;4.47;;;1.77;;
14778;SDS011;7481;53.750;10.570;2022-07-17T08:03:30;5.07;;;2.17;;
14778;SDS011;7481;53.750;10.570;2022-07-17T08:05:57;3.85;;;2.00;;
14778;SDS011;7481;53.750;10.570;2022-07-17T08:08:24;6.20;;;2.20;;
14778;SDS011;7481;53.750;10.570;2022-07-17T08:10:52;5.90;;;2.03;;
14778;SDS011;7481;53.750;10.570;2022-07-17T08:13:19;3.80;;;1.80;;
14778;SDS011;7481;53.750;10.570;2022-07-17T08:15:46;6.32;;;1.80;;
14778;SDS011;7481;53.750;10.570;2022-07-17T08:18:14;3.40;;;1.70;;
14778;SDS011;7481;53.750;10.570;2022-07-17T08:20:40;5.97;;;1.95;;
14778;SDS011;7481;53.750;10.570;2022-07-17T08:23:07;5.03;;;1.95;;
14778;SDS011;7481;53.750;10.570;2022-07-17T08:25:35;5.57;;;1.83;;
14778;SDS011;7481;53.750;10.570;2022-07-17T08:28:03;5.50;;;2.17;;
14778;SDS011;7481;53.750;10.570;2022-07-17T08:30:34;7.57;;;1.67;;
14778;SDS011;7481;53.750;10.570;2022-07-17T08:33:03;5.55;;;1.88;;
14778;SDS011;7481;53.750;10.570;2022-07-17T08:35:31;3.78;;;1.55;;
14778;SDS011;7481;53.750;10.570;2022-07-17T08:37:59;5.53;;;1.83;;
14778;SDS011;7481;53.750;10.570;2022-07-17T08:40:30;4.95;;;1.77;;
14778;SDS011;7481;53.750;10.570;2022-07-17T08:43:05;4.65;;;1.90;;
14778;SDS011;7481;53.750;10.570;2022-07-17T08:45:33;4.15;;;1.90;;
14778;SDS011;7481;53.750;10.570;2022-07-17T08:48:01;2.70;;;1.60;;
14778;SDS011;7481;53.750;10.570;2022-07-17T08:50:30;4.75;;;1.73;;
14778;SDS011;7481;53.750;10.570;2022-07-17T08:52:59;3.65;;;1.63;;
14778;SDS011;7481;53.750;10.570;2022-07-17T08:55:26;4.38;;;1.67;;
14778;SDS011;7481;53.750;10.570;2022-07-17T08:57:54;4.70;;;1.65;;
14778;SDS011;7481;53.750;10.570;2022-07-17T09:00:27;4.40;;;1.90;;
14778;SDS011;7481;53.750;10.570;2022-07-17T09:03:01;4.32;;;1.90;;
14778;SDS011;7481;53.750;10.570;2022-07-17T09:05:30;3.53;;;2.20;;
14778;SDS011;7481;53.750;10.570;2022-07-17T09:08:05;3.55;;;2.00;;
14778;SDS011;7481;53.750;10.570;2022-07-17T09:10:42;3.15;;;1.70;;
14778;SDS011;7481;53.750;10.570;2022-07-17T09:15:45;3.78;;;1.77;;
14778;SDS011;7481;53.750;10.570;2022-07-17T09:18:13;3.30;;;1.70;;
14778;SDS011;7481;53.750;10.570;2022-07-17T09:23:22;5.20;;;1.65;;
14778;SDS011;7481;53.750;10.570;2022-07-17T09:25:51;6.60;;;2.10;;
14778;SDS011;7481;53.750;10.570;2022-07-17T09:28:22;4.00;;;1.80;;
14778;SDS011;7481;53.750;10.570;2022-07-17T09:30:51;4.95;;;2.05;;
14778;SDS011;7481;53.750;10.570;2022-07-17T09:33:26;3.42;;;1.80;;
14778;SDS011;7481;53.750;10.570;2022-07-17T09:38:29;4.40;;;1.90;;
14778;SDS011;7481;53.750;10.570;2022-07-17T09:41:02;3.55;;;1.60;;
14778;SDS011;7481;53.750;10.570;2022-07-17T09:46:13;3.00;;;2.00;;
14778;SDS011;7481;53.750;10.570;2022-07-17T09:48:43;4.97;;;1.83;;
14778;SDS011;7481;53.750;10.570;2022-07-17T09:51:33;4.65;;;1.88;;
14778;SDS011;7481;53.750;10.570;2022-07-17T09:54:06;4.35;;;1.70;;
14778;SDS011;7481;53.750;10.570;2022-07-17T09:56:35;5.75;;;2.03;;
14778;SDS011;7481;53.750;10.570;2022-07-17T09:59:05;5.15;;;2.30;;
14778;SDS011;7481;53.750;10.570;2022-07-17T10:01:33;5.07;;;2.00;;
14778;SDS011;7481;53.750;10.570;2022-07-17T10:04:02;4.45;;;1.85;;
14778;SDS011;7481;53.750;10.570;2022-07-17T10:06:30;3.13;;;1.77;;
14778;SDS011;7481;53.750;10.570;2022-07-17T10:08:59;2.78;;;1.70;;
14778;SDS011;7481;53.750;10.570;2022-07-17T10:11:27;4.63;;;2.15;;
14778;SDS011;7481;53.750;10.570;2022-07-17T10:14:05;7.32;;;2.30;;
14778;SDS011;7481;53.750;10.570;2022-07-17T10:16:38;2.60;;;1.67;;
14778;SDS011;7481;53.750;10.570;2022-07-17T10:19:19;3.35;;;2.13;;
14778;SDS011;7481;53.750;10.570;2022-07-17T10:22:07;2.92;;;1.92;;
14778;SDS011;7481;53.750;10.570;2022-07-17T10:24:44;4.30;;;1.90;;
14778;SDS011;7481;53.750;10.570;2022-07-17T10:27:26;4.63;;;2.10;;
14778;SDS011;7481;53.750;10.570;2022-07-17T10:30:01;3.15;;;1.90;;
14778;SDS011;7481;53.750;10.570;2022-07-17T10:32:28;3.58;;;1.90;;
14778;SDS011;7481;53.750;10.570;2022-07-17T10:34:59;2.97;;;1.90;;
14778;SDS011;7481;53.750;10.570;2022-07-17T10:37:32;3.33;;;1.98;;
14778;SDS011;7481;53.750;10.570;2022-07-17T10:43:07;4.40;;;2.00;;
14778;SDS011;7481;53.750;10.570;2022-07-17T10:45:38;4.38;;;1.73;;
14778;SDS011;7481;53.750;10.570;2022-07-17T10:48:12;4.57;;;2.00;;
14778;SDS011;7481;53.750;10.570;2022-07-17T10:50:42;3.25;;;1.75;;
14778;SDS011;7481;53.750;10.570;2022-07-17T10:55:53;3.08;;;1.80;;
14778;SDS011;7481;53.750;10.570;2022-07-17T10:58:33;3.00;;;2.00;;
14778;SDS011;7481;53.750;10.570;2022-07-17T11:01:05;4.78;;;1.85;;
14778;SDS011;7481;53.750;10.570;2022-07-17T11:06:13;2.42;;;1.77;;
14778;SDS011;7481;53.750;10.570;2022-07-17T11:09:04;3.33;;;1.77;;
14778;SDS011;7481;53.750;10.570;2022-07-17T11:11:43;2.70;;;1.75;;
14778;SDS011;7481;53.750;10.570;2022-07-17T11:16:55;4.30;;;1.83;;
14778;SDS011;7481;53.750;10.570;2022-07-17T11:19:24;7.20;;;2.20;;
14778;SDS011;7481;53.750;10.570;2022-07-17T11:21:55;6.63;;;1.92;;
14778;SDS011;7481;53.750;10.570;2022-07-17T11:24:24;4.13;;;1.77;;
14778;SDS011;7481;53.750;10.570;2022-07-17T11:26:52;3.20;;;1.77;;
14778;SDS011;7481;53.750;10.570;2022-07-17T11:29:20;3.15;;;1.85;;
14778;SDS011;7481;53.750;10.570;2022-07-17T11:31:47;4.55;;;2.17;;
14778;SDS011;7481;53.750;10.570;2022-07-17T11:34:24;3.92;;;1.90;;
14778;SDS011;7481;53.750;10.570;2022-07-17T11:37:01;3.20;;;1.90;;
14778;SDS011;7481;53.750;10.570;2022-07-17T11:39:40;3.22;;;1.90;;
14778;SDS011;7481;53.750;10.570;2022-07-17T11:42:13;4.60;;;1.90;;
14778;SDS011;7481;53.750;10.570;2022-07-17T11:44:50;3.25;;;1.92;;
14778;SDS011;7481;53.750;10.570;2022-07-17T11:47:24;3.45;;;1.90;;
14778;SDS011;7481;53.750;10.570;2022-07-17T11:52:52;7.05;;;2.22;;
14778;SDS011;7481;53.750;10.570;2022-07-17T11:55:19;3.92;;;2.10;;
14778;SDS011;7481;53.750;10.570;2022-07-17T11:57:47;2.90;;;1.73;;
14778;SDS011;7481;53.750;10.570;2022-07-17T12:00:20;6.60;;;2.22;;
14778;SDS011;7481;53.750;10.570;2022-07-17T12:02:57;4.38;;;1.90;;
14778;SDS011;7481;53.750;10.570;2022-07-17T12:05:32;4.88;;;1.73;;
14778;SDS011;7481;53.750;10.570;2022-07-17T12:08:01;2.75;;;2.00;;
14778;SDS011;7481;53.750;10.570;2022-07-17T12:10:30;3.20;;;1.73;;
14778;SDS011;7481;53.750;10.570;2022-07-17T12:13:00;4.40;;;1.70;;
14778;SDS011;7481;53.750;10.570;2022-07-17T12:15:44;3.72;;;1.77;;
14778;SDS011;7481;53.750;10.570;2022-07-17T12:18:22;2.75;;;1.65;;
14778;SDS011;7481;53.750;10.570;2022-07-17T12:20:55;4.43;;;1.75;;
14778;SDS011;7481;53.750;10.570;2022-07-17T12:23:30;4.20;;;1.92;;
14778;SDS011;7481;53.750;10.570;2022-07-17T12:26:05;3.58;;;1.88;;
14778;SDS011;7481;53.750;10.570;2022-07-17T12:28:38;3.08;;;1.70;;
14778;SDS011;7481;53.750;10.570;2022-07-17T12:31:13;2.88;;;1.80;;
14778;SDS011;7481;53.750;10.570;2022-07-17T12:33:44;4.63;;;2.13;;
14778;SDS011;7481;53.750;10.570;2022-07-17T12:36:12;5.05;;;1.95;;
14778;SDS011;7481;53.750;10.570;2022-07-17T12:38:39;5.25;;;1.92;;
14778;SDS011;7481;53.750;10.570;2022-07-17T12:41:07;2.55;;;1.63;;
14778;SDS011;7481;53.750;10.570;2022-07-17T12:43:35;2.17;;;1.40;;
14778;SDS011;7481;53.750;10.570;2022-07-17T12:46:03;2.97;;;1.60;;
14778;SDS011;7481;53.750;10.570;2022-07-17T12:48:37;3.05;;;1.73;;
14778;SDS011;7481;53.750;10.570;2022-07-17T12:51:08;2.75;;;1.60;;
14778;SDS011;7481;53.750;10.570;2022-07-17T12:53:37;2.88;;;1.52;;
14778;SDS011;7481;53.750;10.570;2022-07-17T12:56:05;3.30;;;1.60;;
14778;SDS011;7481;53.750;10.570;2022-07-17T12:58:33;4.28;;;1.80;;
14778;SDS011;7481;53.750;10.570;2022-07-17T13:01:00;4.45;;;1.83;;
14778;SDS011;7481;53.750;10.570;2022-07-17T13:03:27;3.92;;;1.67;;
14778;SDS011;7481;53.750;10.570;2022-07-17T13:05:54;1.85;;;1.58;;
14778;SDS011;7481;53.750;10.570;2022-07-17T13:08:21;4.55;;;1.70;;
14778;SDS011;7481;53.750;10.570;2022-07-17T13:10:48;3.28;;;1.50;;
14778;SDS011;7481;53.750;10.570;2022-07-17T13:13:15;2.63;;;1.67;;
14778;SDS011;7481;53.750;10.570;2022-07-17T13:15:43;2.97;;;1.73;;
14778;SDS011;7481;53.750;10.570;2022-07-17T13:18:10;2.58;;;1.67;;
14778;SDS011;7481;53.750;10.570;2022-07-17T13:20:38;2.53;;;1.60;;
14778;SDS011;7481;53.750;10.570;2022-07-17T13:23:06;3.70;;;1.70;;
14778;SDS011;7481;53.750;10.570;2022-07-17T13:25:34;3.17;;;1.80;;
14778;SDS011;7481;53.750;10.570;2022-07-17T13:28:01;4.50;;;1.60;;
14778;SDS011;7481;53.750;10.570;2022-07-17T13:30:29;1.80;;;1.50;;
14778;SDS011;7481;53.750;10.570;2022-07-17T13:32:56;2.53;;;1.55;;
14778;SDS011;7481;53.750;10.570;2022-07-17T13:35:23;4.32;;;1.90;;
14778;SDS011;7481;53.750;10.570;2022-07-17T13:37:50;6.57;;;1.70;;
14778;SDS011;7481;53.750;10.570;2022-07-17T13:40:18;3.58;;;1.83;;
14778;SDS011;7481;53.750;10.570;2022-07-17T13:42:45;2.65;;;1.58;;
14778;SDS011;7481;53.750;10.570;2022-07-17T13:45:15;3.15;;;1.70;;
14778;SDS011;7481;53.750;10.570;2022-07-17T13:47:42;2.60;;;1.60;;
14778;SDS011;7481;53.750;10.570;2022-07-17T13:50:09;3.30;;;1.80;;
14778;SDS011;7481;53.750;10.570;2022-07-17T13:52:40;4.35;;;1.77;;
14778;SDS011;7481;53.750;10.570;2022-07-17T13:55:07;3.53;;;1.90;;
14778;SDS011;7481;53.750;10.570;2022-07-17T13:57:55;3.85;;;1.90;;
14778;SDS011;7481;53.750;10.570;2022-07-17T14:00:22;4.95;;;1.95;;
14778;SDS011;7481;53.750;10.570;2022-07-17T14:02:49;2.42;;;1.75;;
14778;SDS011;7481;53.750;10.570;2022-07-17T14:05:16;4.07;;;1.70;;
14778;SDS011;7481;53.750;10.570;2022-07-17T14:07:43;3.65;;;1.67;;
14778;SDS011;7481;53.750;10.570;2022-07-17T14:10:10;3.20;;;1.58;;
14778;SDS011;7481;53.750;10.570;2022-07-17T14:12:37;2.33;;;1.67;;
14778;SDS011;7481;53.750;10.570;2022-07-17T14:15:05;3.63;;;1.60;;
14778;SDS011;7481;53.750;10.570;2022-07-17T14:17:36;4.47;;;1.50;;
14778;SDS011;7481;53.750;10.570;2022-07-17T14:20:04;3.50;;;1.70;;
14778;SDS011;7481;53.750;10.570;2022-07-17T14:22:32;2.95;;;1.65;;
14778;SDS011;7481;53.750;10.570;2022-07-17T14:24:59;2.38;;;1.50;;
14778;SDS011;7481;53.750;10.570;2022-07-17T14:27:26;2.97;;;1.65;;
14778;SDS011;7481;53.750;10.570;2022-07-17T14:29:53;3.00;;;1.33;;
14778;SDS011;7481;53.750;10.570;2022-07-17T14:32:21;3.50;;;1.67;;
14778;SDS011;7481;53.750;10.570;2022-07-17T14:34:48;3.03;;;1.60;;
14778;SDS011;7481;53.750;10.570;2022-07-17T14:37:15;1.88;;;1.50;;
14778;SDS011;7481;53.750;10.570;2022-07-17T14:39:42;4.25;;;1.60;;
14778;SDS011;7481;53.750;10.570;2022-07-17T14:42:10;3.75;;;1.70;;
14778;SDS011;7481;53.750;10.570;2022-07-17T15:47:21;2.38;;;1.70;;
14778;SDS011;7481;53.750;10.570;2022-07-17T15:49:49;3.33;;;2.00;;
14778;SDS011;7481;53.750;10.570;2022-07-17T15:52:16;3.58;;;2.20;;
14778;SDS011;7481;53.750;10.570;2022-07-17T15:54:43;2.13;;;1.70;;
14778;SDS011;7481;53.750;10.570;2022-07-17T15:57:10;3.30;;;1.85;;
14778;SDS011;7481;53.750;10.570;2022-07-17T15:59:37;4.65;;;2.38;;
14778;SDS011;7481;53.750;10.570;2022-07-17T16:02:04;2.15;;;1.90;;
14778;SDS011;7481;53.750;10.570;2022-07-17T16:04:31;3.08;;;2.10;;
14778;SDS011;7481;53.750;10.570;2022-07-17T16:06:58;3.42;;;2.08;;
14778;SDS011;7481;53.750;10.570;2022-07-17T16:09:26;3.35;;;1.98;;
14778;SDS011;7481;53.750;10.570;2022-07-17T16:11:53;2.92;;;1.95;;
14778;SDS011;7481;53.750;10.570;2022-07-17T16:14:20;5.03;;;2.20;;
14778;SDS011;7481;53.750;10.570;2022-07-17T16:16:47;2.08;;;1.88;;
14778;SDS011;7481;53.750;10.570;2022-07-17T16:19:14;2.15;;;1.80;;
14778;SDS011;7481;53.750;10.570;2022-07-17T16:21:41;4.15;;;2.00;;
14778;SDS011;7481;53.750;10.570;2022-07-17T16:24:08;3.33;;;1.90;;